createdAt,value
2023-01-27T00:02:01.212Z,18.30
2023-01-27T00:05:06.117Z,17.60
2023-01-27T00:08:10.166Z,21.60
2023-01-27T00:11:32.924Z,17.80
2023-01-27T00:14:36.839Z,20.30
2023-01-27T00:17:41.720Z,20.90
2023-01-27T00:21:05.293Z,16.00
2023-01-27T00:24:31.914Z,17.40
2023-01-27T00:27:36.690Z,16.10
2023-01-27T00:33:49.672Z,15.50
2023-01-27T00:36:53.572Z,14.30
2023-01-27T00:39:57.517Z,15.70
2023-01-27T00:43:01.432Z,14.00
2023-01-27T00:46:06.373Z,13.40
2023-01-27T00:49:11.494Z,17.80
2023-01-27T00:52:16.418Z,15.20
2023-01-27T00:55:20.949Z,15.90
2023-01-27T00:58:29.972Z,18.70
2023-01-27T01:01:34.874Z,16.60
2023-01-27T01:04:38.977Z,17.40
2023-01-27T01:07:42.894Z,18.50
2023-01-27T01:10:46.805Z,15.40
2023-01-27T01:13:53.731Z,15.20
2023-01-27T01:16:58.997Z,15.90
2023-01-27T01:20:03.893Z,15.70
2023-01-27T01:23:08.746Z,13.30
2023-01-27T01:26:15.073Z,14.80
2023-01-27T01:29:19.232Z,12.10
2023-01-27T01:32:23.277Z,13.50
2023-01-27T01:35:28.452Z,14.30
2023-01-27T01:38:32.436Z,13.90
2023-01-27T01:41:36.873Z,13.00
2023-01-27T01:44:45.685Z,18.30
2023-01-27T01:47:49.680Z,19.40
2023-01-27T01:51:01.823Z,16.90
2023-01-27T01:54:28.969Z,16.40
2023-01-27T01:57:37.716Z,18.80
2023-01-27T02:00:42.045Z,16.80
2023-01-27T02:03:51.410Z,15.80
2023-01-27T02:07:03.429Z,16.70
2023-01-27T02:10:07.664Z,15.40
2023-01-27T02:13:12.927Z,15.90
2023-01-27T02:16:17.206Z,15.90
2023-01-27T02:19:40.825Z,13.90
2023-01-27T02:23:22.040Z,11.90
2023-01-27T02:26:32.352Z,10.90
2023-01-27T02:29:36.481Z,10.30
2023-01-27T02:32:40.461Z,12.80
2023-01-27T02:35:50.157Z,12.10
2023-01-27T02:38:57.246Z,12.30
2023-01-27T02:42:04.621Z,15.50
2023-01-27T02:45:09.853Z,13.20
2023-01-27T02:48:14.741Z,15.10
2023-01-27T02:51:19.041Z,13.90
2023-01-27T02:54:27.423Z,15.00
2023-01-27T02:57:31.687Z,15.80
2023-01-27T03:00:56.162Z,14.60
2023-01-27T03:04:00.399Z,12.70
2023-01-27T03:07:04.665Z,17.00
2023-01-27T03:10:10.766Z,17.30
2023-01-27T03:13:14.657Z,14.50
2023-01-27T03:16:37.149Z,13.90
2023-01-27T03:22:50.172Z,13.30
2023-01-27T03:25:55.304Z,14.10
2023-01-27T03:29:19.012Z,14.90
2023-01-27T03:32:25.070Z,13.40
2023-01-27T03:35:50.113Z,14.20
2023-01-27T03:39:16.461Z,13.50
2023-01-27T03:42:40.798Z,13.50
2023-01-27T03:46:07.728Z,17.30
2023-01-27T03:49:11.679Z,14.50
2023-01-27T03:52:15.704Z,16.30
2023-01-27T03:55:19.719Z,17.50
2023-01-27T03:58:26.500Z,18.90
2023-01-27T04:01:30.637Z,16.30
2023-01-27T04:04:53.498Z,15.60
2023-01-27T04:07:57.485Z,16.80
2023-01-27T04:11:24.276Z,14.80
2023-01-27T04:14:29.749Z,16.10
2023-01-27T04:17:39.056Z,17.30
2023-01-27T04:20:43.146Z,18.50
2023-01-27T04:23:47.241Z,15.60
2023-01-27T04:26:58.991Z,16.40
2023-01-27T04:30:04.929Z,15.80
2023-01-27T04:33:10.363Z,18.20
2023-01-27T04:36:14.324Z,22.50
2023-01-27T04:39:19.426Z,23.30
2023-01-27T04:42:23.518Z,24.70
2023-01-27T04:45:27.514Z,24.40
2023-01-27T04:48:31.594Z,23.70
2023-01-27T04:51:35.678Z,25.30
2023-01-27T04:54:39.624Z,25.90
2023-01-27T04:57:43.720Z,24.90
2023-01-27T05:00:47.737Z,23.00
2023-01-27T05:03:51.754Z,21.50
2023-01-27T05:06:55.766Z,24.00
2023-01-27T05:09:59.897Z,22.60
2023-01-27T05:13:04.523Z,20.20
2023-01-27T05:16:12.553Z,24.30
2023-01-27T05:19:16.547Z,23.50
2023-01-27T05:22:20.451Z,22.80
2023-01-27T05:25:24.395Z,26.10
2023-01-27T05:28:29.190Z,27.30
2023-01-27T05:31:33.452Z,26.00
2023-01-27T05:34:37.476Z,25.20
2023-01-27T05:37:41.395Z,25.30
2023-01-27T05:40:45.355Z,27.00
2023-01-27T05:43:54.607Z,26.30
2023-01-27T05:46:58.847Z,23.80
2023-01-27T05:50:02.868Z,24.70
2023-01-27T05:53:06.856Z,26.10
2023-01-27T05:56:13.564Z,24.00
2023-01-27T05:59:17.565Z,28.40
2023-01-27T06:02:22.810Z,25.50
2023-01-27T06:05:27.740Z,30.10
2023-01-27T06:08:31.754Z,25.40
2023-01-27T06:11:35.772Z,24.10
2023-01-27T06:14:39.786Z,30.70
2023-01-27T06:17:43.708Z,28.70
2023-01-27T06:20:48.265Z,25.80
2023-01-27T06:23:53.628Z,25.80
2023-01-27T06:26:57.892Z,26.30
2023-01-27T06:30:02.296Z,27.90
2023-01-27T06:33:07.207Z,28.60
2023-01-27T06:36:13.631Z,26.60
2023-01-27T06:39:17.744Z,24.50
2023-01-27T06:42:21.755Z,27.20
2023-01-27T06:45:26.172Z,25.80
2023-01-27T06:48:30.560Z,25.20
2023-01-27T06:51:34.523Z,23.10
2023-01-27T06:54:39.663Z,23.60
2023-01-27T06:57:44.609Z,21.50
2023-01-27T07:00:48.618Z,29.50
2023-01-27T07:03:52.636Z,30.00
2023-01-27T07:06:56.653Z,28.40
2023-01-27T07:10:00.767Z,29.90
2023-01-27T07:13:09.391Z,29.60
2023-01-27T07:16:13.557Z,31.10
2023-01-27T07:19:17.735Z,33.00
2023-01-27T07:22:21.728Z,33.00
2023-01-27T07:25:26.815Z,34.80
2023-01-27T07:28:30.905Z,30.90
2023-01-27T07:31:34.986Z,22.40
2023-01-27T07:34:39.139Z,24.20
2023-01-27T07:37:43.076Z,29.00
2023-01-27T07:40:47.274Z,31.90
2023-01-27T07:43:52.452Z,32.60
2023-01-27T07:46:58.994Z,32.60
2023-01-27T07:50:03.205Z,32.10
2023-01-27T07:53:07.314Z,30.00
2023-01-27T07:56:14.155Z,28.80
2023-01-27T07:59:18.123Z,28.90
2023-01-27T08:02:28.497Z,28.40
2023-01-27T08:05:34.357Z,30.80
2023-01-27T08:08:39.017Z,27.50
2023-01-27T08:11:43.016Z,25.90
2023-01-27T08:14:46.913Z,25.40
2023-01-27T08:17:58.044Z,20.30
2023-01-27T08:21:05.652Z,19.10
2023-01-27T08:24:11.719Z,22.20
2023-01-27T08:27:16.845Z,23.20
2023-01-27T08:30:21.567Z,20.80
2023-01-27T08:33:25.648Z,19.70
2023-01-27T08:36:29.784Z,22.50
2023-01-27T08:39:33.987Z,21.30
2023-01-27T08:42:38.008Z,20.70
2023-01-27T08:45:42.366Z,18.90
2023-01-27T08:48:46.428Z,19.30
2023-01-27T08:51:50.458Z,18.00
2023-01-27T08:54:54.656Z,15.80
2023-01-27T08:57:59.001Z,11.50
2023-01-27T09:01:04.715Z,11.60
2023-01-27T09:04:08.858Z,14.30
2023-01-27T09:07:12.863Z,13.30
2023-01-27T09:10:17.438Z,13.30
2023-01-27T09:13:24.411Z,13.00
2023-01-27T09:16:29.230Z,12.30
2023-01-27T09:19:33.359Z,12.00
2023-01-27T09:22:40.474Z,15.30
2023-01-27T09:25:44.570Z,13.40
2023-01-27T09:28:48.582Z,14.30
2023-01-27T09:31:52.848Z,11.80
2023-01-27T09:34:57.024Z,13.50
2023-01-27T09:38:01.662Z,12.60
2023-01-27T09:41:35.983Z,12.70
2023-01-27T09:48:05.208Z,9.20
2023-01-27T09:51:48.524Z,8.30
2023-01-27T09:55:11.371Z,10.80
2023-01-27T09:58:48.259Z,9.50
2023-01-27T10:02:36.642Z,11.10
2023-01-27T10:06:08.633Z,7.70
2023-01-27T10:09:39.265Z,10.30
2023-01-27T10:13:05.604Z,10.00
2023-01-27T10:16:13.534Z,9.50
2023-01-27T10:19:32.263Z,9.20
2023-01-27T10:23:00.343Z,7.00
2023-01-27T10:26:26.047Z,7.90
2023-01-27T10:30:08.060Z,8.30
2023-01-27T10:33:28.386Z,9.10
2023-01-27T10:36:46.111Z,9.00
2023-01-27T10:40:16.096Z,9.50
2023-01-27T10:43:55.688Z,10.20
2023-01-27T10:47:30.798Z,8.10
2023-01-27T10:50:40.461Z,9.80
2023-01-27T10:53:57.451Z,8.50
2023-01-27T10:57:18.001Z,8.90
2023-01-27T11:01:13.276Z,8.60
2023-01-27T11:04:12.658Z,9.40
2023-01-27T11:07:20.124Z,7.80
2023-01-27T11:10:33.462Z,10.00
2023-01-27T11:13:38.474Z,8.60
2023-01-27T11:16:48.049Z,9.40
2023-01-27T11:20:02.904Z,10.80
2023-01-27T11:23:09.803Z,13.40
2023-01-27T11:26:26.001Z,10.40
2023-01-27T11:29:42.695Z,9.30
2023-01-27T11:33:21.404Z,11.30
2023-01-27T11:36:26.634Z,12.60
2023-01-27T11:39:33.695Z,13.10
2023-01-27T11:42:38.177Z,11.90
2023-01-27T11:45:42.336Z,10.20
2023-01-27T11:48:50.847Z,11.40
2023-01-27T11:52:11.955Z,11.30
2023-01-27T11:55:20.827Z,9.90
2023-01-27T11:58:46.732Z,12.50
2023-01-27T12:02:02.261Z,11.10
2023-01-27T12:05:14.744Z,12.50
2023-01-27T12:08:45.661Z,13.30
2023-01-27T12:12:09.031Z,11.80
2023-01-27T12:15:16.662Z,10.50
2023-01-27T12:18:21.055Z,12.00
2023-01-27T12:21:37.467Z,12.10
2023-01-27T12:27:54.915Z,10.40
2023-01-27T12:31:32.850Z,12.00
2023-01-27T12:34:37.889Z,12.60
2023-01-27T12:37:41.891Z,12.00
2023-01-27T12:40:48.665Z,7.30
2023-01-27T12:44:00.413Z,11.20
2023-01-27T12:47:21.170Z,10.70
2023-01-27T12:50:31.357Z,11.80
2023-01-27T12:53:35.449Z,11.70
2023-01-27T12:56:39.564Z,12.70
2023-01-27T12:59:56.388Z,12.60
2023-01-27T13:03:06.323Z,13.50
2023-01-27T13:06:16.418Z,13.00
2023-01-27T13:09:35.130Z,12.80
2023-01-27T13:12:53.852Z,13.90
2023-01-27T13:16:14.129Z,14.40
2023-01-27T13:19:18.959Z,15.10
2023-01-27T13:22:26.753Z,14.90
2023-01-27T13:25:39.754Z,19.50
2023-01-27T13:28:52.816Z,16.80
2023-01-27T13:32:04.819Z,14.60
2023-01-27T13:35:25.113Z,15.60
2023-01-27T13:38:45.813Z,13.80
2023-01-27T13:42:05.190Z,13.30
2023-01-27T13:45:54.462Z,13.70
2023-01-27T13:49:03.975Z,13.80
2023-01-27T13:52:08.101Z,12.80
2023-01-27T13:55:14.116Z,7.30
2023-01-27T13:58:37.783Z,14.50
2023-01-27T14:01:59.787Z,14.70
2023-01-27T14:05:28.805Z,7.20
2023-01-27T14:08:58.943Z,15.90
2023-01-27T14:12:35.413Z,16.50
2023-01-27T14:15:57.373Z,17.60
2023-01-27T14:19:31.846Z,16.80
2023-01-27T14:22:51.663Z,16.40
2023-01-27T14:26:04.463Z,19.40
2023-01-27T14:29:17.824Z,14.20
2023-01-27T14:33:09.967Z,19.10
2023-01-27T14:36:21.386Z,15.70
2023-01-27T14:39:38.889Z,15.60
2023-01-27T14:42:50.788Z,16.40
2023-01-27T14:46:05.191Z,17.00
2023-01-27T14:49:37.349Z,22.00
2023-01-27T14:52:59.614Z,17.50
2023-01-27T14:56:09.999Z,20.30
2023-01-27T14:59:41.914Z,19.40
2023-01-27T15:03:14.231Z,20.20
2023-01-27T15:06:47.715Z,20.40
2023-01-27T15:10:20.964Z,19.90
2023-01-27T15:13:54.870Z,19.90
2023-01-27T15:17:19.304Z,19.20
2023-01-27T15:20:41.943Z,20.10
2023-01-27T15:24:01.316Z,18.70
2023-01-27T15:27:08.013Z,20.10
2023-01-27T15:30:25.541Z,23.70
2023-01-27T15:34:03.353Z,20.70
2023-01-27T15:37:10.052Z,23.90
2023-01-27T15:40:17.272Z,22.10
2023-01-27T15:43:25.539Z,22.00
2023-01-27T15:46:36.007Z,23.80
2023-01-27T15:49:49.825Z,22.50
2023-01-27T15:53:01.395Z,22.30
2023-01-27T15:56:06.177Z,20.80
2023-01-27T15:59:16.243Z,21.00
2023-01-27T16:02:29.759Z,23.80
2023-01-27T16:05:44.647Z,19.70
2023-01-27T16:08:52.653Z,25.10
2023-01-27T16:12:07.091Z,21.20
2023-01-27T16:15:20.059Z,22.60
2023-01-27T16:18:27.033Z,23.90
2023-01-27T16:21:57.712Z,25.90
2023-01-27T16:25:30.236Z,23.80
2023-01-27T16:28:35.995Z,24.80
2023-01-27T16:31:41.994Z,26.20
2023-01-27T16:34:53.300Z,25.50
2023-01-27T16:38:05.756Z,23.00
2023-01-27T16:41:24.221Z,24.20
2023-01-27T16:44:54.619Z,20.40
2023-01-27T16:48:03.495Z,21.00
2023-01-27T16:51:13.448Z,22.80
2023-01-27T16:54:34.978Z,23.40
2023-01-27T16:57:45.651Z,24.60
2023-01-27T17:04:07.779Z,22.50
2023-01-27T17:07:22.537Z,24.30
2023-01-27T17:10:34.349Z,27.60
2023-01-27T17:13:50.192Z,23.60
2023-01-27T17:17:00.021Z,25.80
2023-01-27T17:20:07.819Z,22.90
2023-01-27T17:23:34.247Z,19.10
2023-01-27T17:26:38.334Z,24.00
2023-01-27T17:29:45.731Z,22.80
2023-01-27T17:32:53.035Z,24.80
2023-01-27T17:36:02.814Z,19.60
2023-01-27T17:39:25.682Z,24.20
2023-01-27T17:42:32.456Z,22.80
2023-01-27T17:45:36.775Z,24.40
2023-01-27T17:48:47.112Z,22.10
2023-01-27T17:51:57.596Z,21.20
2023-01-27T17:55:02.751Z,24.20
2023-01-27T17:58:16.291Z,21.00
2023-01-27T18:01:21.557Z,22.90
2023-01-27T18:04:25.644Z,24.90
2023-01-27T18:07:31.290Z,26.40
2023-01-27T18:10:35.252Z,24.90
2023-01-27T18:13:40.941Z,22.60
2023-01-27T18:16:44.996Z,27.80
2023-01-27T18:19:51.793Z,27.70
2023-01-27T18:22:57.313Z,24.20
2023-01-27T18:26:21.622Z,22.90
2023-01-27T18:29:37.433Z,18.80
2023-01-27T18:32:43.765Z,20.70
2023-01-27T18:35:59.978Z,23.20
2023-01-27T18:39:24.801Z,20.90
2023-01-27T18:42:31.152Z,25.80
2023-01-27T18:45:35.120Z,26.40
2023-01-27T18:48:40.152Z,26.10
2023-01-27T18:51:44.325Z,28.40
2023-01-27T18:54:48.445Z,25.40
2023-01-27T18:57:55.741Z,27.20
2023-01-27T19:01:01.191Z,26.30
2023-01-27T19:04:11.619Z,25.00
2023-01-27T19:07:18.234Z,20.60
2023-01-27T19:10:28.572Z,22.30
2023-01-27T19:13:32.515Z,24.40
2023-01-27T19:16:37.330Z,23.70
2023-01-27T19:19:41.445Z,20.70
2023-01-27T19:22:46.969Z,23.60
2023-01-27T19:25:53.797Z,27.20
2023-01-27T19:28:58.371Z,27.50
2023-01-27T19:32:02.375Z,27.80
2023-01-27T19:35:08.414Z,26.70
2023-01-27T19:38:12.701Z,28.70
2023-01-27T19:41:16.737Z,26.90
2023-01-27T19:44:21.375Z,28.00
2023-01-27T19:47:25.262Z,28.00
2023-01-27T19:50:30.505Z,23.90
2023-01-27T19:53:34.415Z,28.00
2023-01-27T19:56:38.832Z,28.50
2023-01-27T19:59:42.759Z,27.90
2023-01-27T20:02:46.899Z,30.80
2023-01-27T20:05:51.021Z,26.30
2023-01-27T20:08:57.465Z,29.40
2023-01-27T20:12:01.501Z,32.20
2023-01-27T20:15:06.302Z,42.60
2023-01-27T20:18:15.667Z,32.90
2023-01-27T20:21:25.256Z,30.00
2023-01-27T20:24:29.395Z,31.60
2023-01-27T20:27:34.050Z,26.60
2023-01-27T20:30:38.874Z,29.70
2023-01-27T20:36:46.825Z,27.10
2023-01-27T20:39:50.799Z,26.20
2023-01-27T20:42:55.176Z,33.20
2023-01-27T20:46:10.808Z,31.60
2023-01-27T20:49:14.822Z,28.80
2023-01-27T20:52:18.783Z,30.30
2023-01-27T20:55:23.014Z,34.10
2023-01-27T20:58:27.914Z,32.10
2023-01-27T21:01:33.364Z,26.50
2023-01-27T21:04:37.399Z,29.00
2023-01-27T21:07:41.754Z,27.90
2023-01-27T21:10:45.765Z,24.80
2023-01-27T21:13:51.930Z,22.70
2023-01-27T21:16:55.982Z,24.80
2023-01-27T21:19:59.955Z,25.20
2023-01-27T21:23:03.970Z,29.20
2023-01-27T21:26:11.808Z,25.70
2023-01-27T21:29:15.690Z,26.10
2023-01-27T21:32:19.718Z,27.70
2023-01-27T21:35:23.714Z,26.30
2023-01-27T21:38:27.838Z,25.50
2023-01-27T21:41:51.615Z,26.40
2023-01-27T21:45:15.442Z,28.10
2023-01-27T21:48:19.718Z,26.20
2023-01-27T21:51:23.739Z,20.20
2023-01-27T21:54:28.695Z,24.10
2023-01-27T21:57:32.666Z,20.50
2023-01-27T22:00:36.685Z,26.90
2023-01-27T22:03:40.854Z,27.00
2023-01-27T22:06:44.925Z,26.10
2023-01-27T22:09:48.941Z,26.60
2023-01-27T22:12:57.735Z,26.10
2023-01-27T22:16:02.611Z,28.30
2023-01-27T22:19:06.747Z,26.40
2023-01-27T22:22:13.192Z,28.00
2023-01-27T22:25:17.812Z,28.30
2023-01-27T22:31:28.128Z,22.30
2023-01-27T22:34:32.346Z,20.60
2023-01-27T22:37:37.836Z,27.90
2023-01-27T22:40:41.920Z,27.00
2023-01-27T22:43:50.100Z,29.10
2023-01-27T22:46:54.073Z,27.60
2023-01-27T22:49:58.060Z,26.60
2023-01-27T22:53:02.075Z,25.20
2023-01-27T22:56:07.115Z,27.80
2023-01-27T22:59:13.288Z,25.80
2023-01-27T23:02:17.215Z,23.30
2023-01-27T23:05:21.438Z,23.80
2023-01-27T23:08:25.406Z,19.60
2023-01-27T23:11:29.331Z,23.70
2023-01-27T23:14:33.246Z,25.30
2023-01-27T23:17:37.376Z,24.10
2023-01-27T23:20:42.580Z,25.40
2023-01-27T23:23:46.576Z,25.30
2023-01-27T23:26:50.764Z,25.20
2023-01-27T23:29:55.369Z,24.80
2023-01-27T23:32:59.295Z,24.50
2023-01-27T23:36:03.631Z,21.40
2023-01-27T23:39:13.531Z,23.90
2023-01-27T23:42:18.311Z,21.50
2023-01-27T23:45:22.205Z,22.80
2023-01-27T23:48:28.005Z,21.80
2023-01-27T23:51:32.048Z,19.80
2023-01-27T23:54:35.994Z,22.40
2023-01-27T23:57:40.228Z,22.40
